Time;durP1;ratioP1;P1;durP2;ratioP2;P2;SDS_P1;SDS_P2;PMS_P1;PMS_P2;Temp;Humidity;BMP_temperature;BMP_pressure;BME280_temperature;BME280_humidity;BME280_pressure;Samples;Min_cycle;Max_cycle;Signal;HPM_P1;HPM_P2
2023/08/11 00:01:51;;;;;;;18.40;7.90;;;21.70;99.90;;;;;;5230040;28;20480;-78
2023/08/11 00:04:22;;;;;;;10.60;9.30;;;21.60;99.90;;;;;;5229915;28;20033;-78
2023/08/11 00:06:52;;;;;;;13.35;12.07;;;21.60;99.90;;;;;;5229940;28;20035;-78
2023/08/11 00:09:25;;;;;;;11.25;10.13;;;21.60;99.90;;;;;;5247749;28;20216;-78
2023/08/11 00:11:56;;;;;;;13.73;10.98;;;21.50;99.90;;;;;;5229813;28;20078;-78
2023/08/11 00:14:27;;;;;;;14.60;13.18;;;21.40;99.90;;;;;;5247471;28;20040;-78
2023/08/11 00:16:58;;;;;;;12.65;11.48;;;21.50;99.90;;;;;;5229657;28;20024;-78
2023/08/11 00:19:29;;;;;;;11.15;10.07;;;21.40;99.90;;;;;;5229883;28;20438;-78
2023/08/11 00:22:00;;;;;;;11.95;10.27;;;21.30;99.90;;;;;;5250845;28;20334;-78
2023/08/11 00:24:31;;;;;;;11.40;10.27;;;21.40;99.90;;;;;;5251674;28;20035;-77
2023/08/11 00:27:02;;;;;;;24.75;9.18;;;21.40;99.90;;;;;;5251720;28;20105;-78
2023/08/11 00:29:33;;;;;;;141.65;14.73;;;21.40;99.90;;;;;;5233022;28;20047;-78
2023/08/11 00:32:04;;;;;;;7.93;7.13;;;21.30;99.90;;;;;;5251384;28;20020;-78
2023/08/11 00:34:35;;;;;;;8.57;6.97;;;21.30;99.90;;;;;;5251340;28;20499;-78
2023/08/11 00:37:07;;;;;;;9.95;7.07;;;21.30;99.90;;;;;;5251560;28;20099;-78
2023/08/11 00:39:38;;;;;;;7.63;6.93;;;21.30;99.90;;;;;;5251325;28;20082;-78
2023/08/11 00:42:09;;;;;;;7.65;6.63;;;21.20;99.90;;;;;;5251106;28;20016;-78
2023/08/11 00:44:40;;;;;;;9.15;6.18;;;21.20;99.90;;;;;;5250830;28;20136;-78
2023/08/11 00:47:11;;;;;;;7.30;6.60;;;21.20;99.90;;;;;;5251410;28;20039;-78
2023/08/11 00:49:43;;;;;;;10.43;6.22;;;21.10;99.90;;;;;;5251074;28;20033;-78
2023/08/11 00:52:14;;;;;;;9.27;7.03;;;21.10;99.90;;;;;;5233508;28;20025;-78
2023/08/11 00:54:45;;;;;;;6.65;6.10;;;21.10;99.90;;;;;;5251075;28;20765;-78
2023/08/11 00:57:16;;;;;;;7.53;6.38;;;21.00;99.90;;;;;;5250842;28;20032;-78
2023/08/11 00:59:48;;;;;;;10.18;6.97;;;21.00;99.90;;;;;;5251059;28;20603;-78
2023/08/11 01:02:19;;;;;;;8.93;7.43;;;20.90;99.90;;;;;;5251106;28;20077;-78
2023/08/11 01:04:50;;;;;;;8.30;6.55;;;20.90;99.90;;;;;;5257420;28;20024;-77
2023/08/11 01:07:27;;;;;;;10.65;7.53;;;20.80;99.90;;;;;;5271952;28;20344;-78
2023/08/11 01:10:23;;;;;;;9.15;6.38;;;20.80;99.90;;;;;;5271623;28;20024;-78
2023/08/11 01:13:03;;;;;;;10.25;7.20;;;20.80;99.90;;;;;;5272024;28;20050;-78
2023/08/11 01:15:40;;;;;;;9.32;7.43;;;20.80;99.90;;;;;;5271492;28;20101;-78
2023/08/11 01:18:12;;;;;;;6.35;5.85;;;20.80;99.90;;;;;;5271683;28;20548;-78
2023/08/11 01:20:44;;;;;;;6.93;6.28;;;20.70;99.90;;;;;;5271596;28;20081;-78
2023/08/11 01:23:25;;;;;;;6.40;5.80;;;20.80;99.90;;;;;;5271402;28;20107;-78
2023/08/11 01:25:56;;;;;;;7.40;6.15;;;20.70;99.90;;;;;;5271429;28;20036;-78
2023/08/11 01:28:27;;;;;;;7.07;6.22;;;20.60;99.90;;;;;;5271751;28;20024;-77
2023/08/11 01:30:58;;;;;;;9.38;7.30;;;20.40;99.90;;;;;;5271453;28;20383;-78
2023/08/11 01:33:29;;;;;;;11.35;6.95;;;20.40;99.90;;;;;;5253195;28;20016;-78
2023/08/11 01:36:00;;;;;;;16.10;7.07;;;20.40;99.90;;;;;;5271179;28;20032;-77
2023/08/11 01:38:31;;;;;;;8.60;7.88;;;20.30;99.90;;;;;;5270903;28;20025;-78
2023/08/11 01:41:02;;;;;;;8.93;7.85;;;20.30;99.90;;;;;;5270982;28;20055;-78
2023/08/11 01:43:35;;;;;;;11.50;8.05;;;20.40;99.90;;;;;;5270872;28;20020;-78
2023/08/11 01:46:06;;;;;;;11.82;10.68;;;20.30;99.90;;;;;;5270551;28;20067;-78
2023/08/11 01:48:38;;;;;;;10.85;9.70;;;20.30;99.90;;;;;;5252869;28;20187;-77
2023/08/11 01:51:09;;;;;;;11.20;8.65;;;20.30;99.90;;;;;;5271058;28;20419;-78
2023/08/11 01:53:40;;;;;;;13.00;11.75;;;20.30;99.90;;;;;;5270959;28;20068;-78
2023/08/11 01:56:11;;;;;;;11.50;10.07;;;20.30;99.90;;;;;;5270761;28;20368;-78
2023/08/11 01:58:42;;;;;;;11.85;10.68;;;20.20;99.90;;;;;;5270886;28;20096;-77
2023/08/11 02:01:13;;;;;;;10.35;9.52;;;20.20;99.90;;;;;;5252852;28;20116;-78
2023/08/11 02:03:44;;;;;;;9.88;9.05;;;20.10;99.90;;;;;;5270776;28;20081;-77
2023/08/11 02:06:15;;;;;;;12.40;11.18;;;20.20;99.90;;;;;;5270552;28;20104;-78
2023/08/11 02:08:46;;;;;;;10.57;9.30;;;20.10;99.90;;;;;;5270408;28;20020;-77
2023/08/11 02:11:17;;;;;;;11.02;7.63;;;20.00;99.90;;;;;;5252392;28;20119;-77
2023/08/11 02:13:48;;;;;;;8.57;7.85;;;20.10;99.90;;;;;;5270618;28;20107;-78
2023/08/11 02:16:18;;;;;;;14.50;8.85;;;20.10;99.90;;;;;;5270235;28;20063;-78
2023/08/11 02:18:49;;;;;;;10.25;9.15;;;20.10;99.90;;;;;;5270486;28;20042;-78
2023/08/11 02:21:21;;;;;;;8.65;7.80;;;20.10;99.90;;;;;;5252403;28;20028;-78
2023/08/11 02:23:51;;;;;;;8.88;8.05;;;20.00;99.90;;;;;;5252399;28;20028;-78
2023/08/11 02:26:23;;;;;;;8.05;7.07;;;20.00;99.90;;;;;;5252085;28;20476;-78
2023/08/11 02:28:54;;;;;;;8.40;6.18;;;19.70;99.90;;;;;;5270159;28;20028;-78
2023/08/11 02:31:27;;;;;;;12.43;6.43;;;19.70;99.90;;;;;;5252197;28;20020;-77
2023/08/11 02:33:58;;;;;;;7.72;5.70;;;19.60;99.90;;;;;;5269873;28;20051;-78
2023/08/11 02:36:29;;;;;;;8.65;6.13;;;19.80;99.90;;;;;;5269973;28;20024;-78
2023/08/11 02:39:00;;;;;;;8.25;6.13;;;19.60;99.90;;;;;;5269991;28;20429;-78
2023/08/11 02:41:31;;;;;;;9.60;6.00;;;19.60;99.90;;;;;;5269889;28;20028;-78
2023/08/11 02:44:02;;;;;;;6.43;5.40;;;19.60;99.90;;;;;;5269444;28;20055;-77
2023/08/11 02:46:36;;;;;;;10.50;6.35;;;19.50;99.90;;;;;;5269749;28;20093;-78
2023/08/11 02:49:07;;;;;;;6.75;5.70;;;19.40;99.90;;;;;;5251647;28;20020;-78
2023/08/11 02:51:38;;;;;;;11.10;6.50;;;19.60;99.90;;;;;;5269883;28;20039;-78
2023/08/11 02:54:09;;;;;;;6.50;5.82;;;19.60;99.90;;;;;;5251732;28;20024;-77
2023/08/11 02:56:49;;;;;;;8.18;5.60;;;19.70;99.90;;;;;;5269701;28;20036;-77
2023/08/11 02:59:20;;;;;;;6.45;5.90;;;19.60;99.90;;;;;;5269725;28;20051;-77
2023/08/11 03:01:51;;;;;;;9.65;5.85;;;19.60;99.90;;;;;;5269567;28;20040;-77
2023/08/11 03:04:23;;;;;;;6.25;5.75;;;19.60;99.90;;;;;;5269527;28;20024;-77
2023/08/11 03:06:54;;;;;;;6.70;6.00;;;19.70;99.90;;;;;;5269570;28;20486;-77
2023/08/11 03:09:25;;;;;;;7.82;5.97;;;19.60;99.90;;;;;;5269518;28;20068;-78
2023/08/11 03:11:56;;;;;;;13.50;6.32;;;19.60;99.90;;;;;;5269311;28;20035;-78
2023/08/11 03:14:27;;;;;;;8.90;5.82;;;19.60;99.90;;;;;;5269299;28;20040;-78
2023/08/11 03:16:59;;;;;;;7.65;6.75;;;19.50;99.90;;;;;;5269206;28;20031;-78
2023/08/11 03:19:30;;;;;;;7.72;6.10;;;19.50;99.90;;;;;;5269233;28;20068;-78
2023/08/11 03:22:01;;;;;;;13.18;7.30;;;19.50;99.90;;;;;;5269451;28;20028;-77
2023/08/11 03:24:32;;;;;;;7.43;6.30;;;19.50;99.90;;;;;;5269297;28;20035;-78
2023/08/11 03:27:03;;;;;;;7.85;6.90;;;19.60;99.90;;;;;;5269181;28;20028;-77
2023/08/11 03:29:33;;;;;;;7.72;6.97;;;19.50;99.90;;;;;;5268963;28;20032;-78
2023/08/11 03:32:05;;;;;;;12.07;6.93;;;19.50;99.90;;;;;;5269125;28;20043;-78
2023/08/11 03:34:36;;;;;;;8.02;6.63;;;19.70;99.90;;;;;;5268910;28;20040;-78
2023/08/11 03:37:07;;;;;;;9.10;6.80;;;19.60;99.90;;;;;;5268860;28;20020;-77
2023/08/11 03:39:38;;;;;;;7.50;6.70;;;19.50;99.90;;;;;;5268956;28;20471;-78
2023/08/11 03:42:09;;;;;;;10.63;7.20;;;19.60;99.90;;;;;;5268997;28;20024;-78
2023/08/11 03:44:41;;;;;;;8.80;6.72;;;19.40;99.90;;;;;;5268948;28;20044;-77
2023/08/11 03:47:12;;;;;;;7.90;7.25;;;19.60;99.90;;;;;;5269085;28;20177;-78
2023/08/11 03:49:45;;;;;;;9.63;7.40;;;19.50;99.90;;;;;;5269168;28;20038;-78
2023/08/11 03:52:16;;;;;;;10.25;8.15;;;19.60;99.90;;;;;;5268960;28;20054;-78
2023/08/11 03:54:47;;;;;;;7.93;7.38;;;19.70;99.90;;;;;;5268655;28;20089;-78
2023/08/11 03:57:18;;;;;;;13.32;8.48;;;19.80;99.90;;;;;;5272824;28;20024;-78
2023/08/11 03:59:49;;;;;;;9.45;7.95;;;19.80;99.90;;;;;;5273288;28;20039;-78
2023/08/11 04:02:19;;;;;;;9.65;8.65;;;19.80;99.90;;;;;;5273056;28;20023;-77
2023/08/11 04:04:50;;;;;;;8.23;7.28;;;19.90;99.90;;;;;;5273357;28;20085;-78
2023/08/11 04:07:21;;;;;;;11.68;7.30;;;20.10;99.90;;;;;;5273231;28;20023;-77
2023/08/11 04:09:52;;;;;;;12.25;7.75;;;20.10;99.90;;;;;;5273246;28;20032;-77
2023/08/11 04:12:23;;;;;;;8.25;7.45;;;20.10;99.90;;;;;;5254967;28;20030;-78
2023/08/11 04:14:54;;;;;;;7.45;6.70;;;20.20;99.90;;;;;;5272455;28;20055;-78
2023/08/11 04:17:26;;;;;;;10.70;7.43;;;20.10;99.90;;;;;;5272614;28;20024;-78
2023/08/11 04:19:57;;;;;;;9.05;6.90;;;20.30;99.90;;;;;;5272679;28;20032;-77
2023/08/11 04:22:28;;;;;;;7.07;6.38;;;20.30;99.90;;;;;;5272666;28;20020;-78
2023/08/11 04:24:59;;;;;;;7.85;6.00;;;20.30;99.90;;;;;;5254392;28;20032;-78
2023/08/11 04:27:31;;;;;;;10.10;6.07;;;20.50;99.90;;;;;;5272426;28;20028;-78
2023/08/11 04:30:03;;;;;;;9.20;5.80;;;20.60;99.90;;;;;;5272561;28;20024;-78
2023/08/11 04:32:34;;;;;;;10.40;5.75;;;20.60;99.90;;;;;;5272336;28;20081;-78
2023/08/11 04:35:08;;;;;;;8.23;5.85;;;20.70;99.90;;;;;;5271903;28;20035;-78
2023/08/11 04:37:40;;;;;;;7.90;7.10;;;20.90;99.90;;;;;;5271958;28;20119;-78
2023/08/11 04:40:13;;;;;;;9.32;8.57;;;21.10;99.90;;;;;;5272192;28;20024;-78
2023/08/11 04:42:44;;;;;;;10.80;9.75;;;21.20;99.90;;;;;;5272484;28;20031;-78
2023/08/11 04:45:15;;;;;;;8.95;8.02;;;21.40;99.90;;;;;;5272040;28;20052;-78
2023/08/11 04:47:46;;;;;;;6.57;5.35;;;21.50;99.90;;;;;;5239950;28;20032;-78
2023/08/11 04:50:17;;;;;;;8.13;5.05;;;21.50;99.90;;;;;;5251116;28;20092;-78
2023/08/11 04:52:49;;;;;;;6.00;5.25;;;21.60;99.90;;;;;;5251438;28;20028;-77
2023/08/11 04:55:19;;;;;;;7.10;6.50;;;21.60;99.90;;;;;;5251066;28;20068;-78
2023/08/11 04:57:50;;;;;;;7.80;6.53;;;21.60;99.90;;;;;;5251291;28;20055;-78
2023/08/11 05:00:22;;;;;;;6.47;5.88;;;21.60;99.90;;;;;;5251182;28;20479;-78
2023/08/11 05:02:53;;;;;;;8.30;5.85;;;21.80;99.90;;;;;;5250954;28;20024;-78
2023/08/11 05:05:26;;;;;;;14.98;7.00;;;21.70;99.90;;;;;;5250819;28;20056;-78
2023/08/11 05:07:57;;;;;;;7.13;6.35;;;22.00;99.90;;;;;;5250020;28;20499;-77
2023/08/11 05:10:28;;;;;;;7.00;5.07;;;22.00;99.90;;;;;;5250645;28;20763;-78
2023/08/11 05:12:59;;;;;;;6.32;5.72;;;22.10;99.90;;;;;;5250269;28;20029;-77
2023/08/11 05:15:30;;;;;;;5.72;5.25;;;22.20;99.90;;;;;;5249800;28;20575;-78
2023/08/11 05:18:01;;;;;;;7.03;6.30;;;22.20;99.90;;;;;;5249678;28;20474;-78
2023/08/11 05:20:32;;;;;;;7.20;6.43;;;22.20;99.90;;;;;;5250335;28;20020;-78
2023/08/11 05:23:04;;;;;;;9.02;8.07;;;22.20;99.90;;;;;;5250206;28;20017;-77
2023/08/11 05:25:36;;;;;;;8.25;7.40;;;22.50;99.90;;;;;;5249477;28;20393;-77
2023/08/11 05:28:07;;;;;;;8.75;8.02;;;22.50;99.90;;;;;;5249621;28;20101;-77
2023/08/11 05:30:38;;;;;;;8.20;7.40;;;22.50;99.90;;;;;;5249848;28;20059;-76
2023/08/11 05:33:09;;;;;;;6.88;6.13;;;22.40;99.90;;;;;;5249796;28;20021;-77
2023/08/11 05:35:40;;;;;;;8.35;6.55;;;22.60;99.90;;;;;;5253041;28;20046;-78
2023/08/11 05:38:12;;;;;;;8.60;6.75;;;22.70;99.90;;;;;;5255001;28;20024;-77
2023/08/11 05:40:43;;;;;;;6.90;6.35;;;22.80;99.90;;;;;;5249278;28;20142;-77
2023/08/11 05:43:14;;;;;;;7.47;5.68;;;22.90;99.90;;;;;;5249248;28;20036;-78
2023/08/11 05:45:44;;;;;;;6.38;5.78;;;22.90;99.90;;;;;;5249101;28;20055;-78
2023/08/11 05:48:15;;;;;;;7.50;6.13;;;23.00;99.90;;;;;;5249289;28;20157;-78
2023/08/11 05:50:47;;;;;;;7.22;6.53;;;23.00;99.90;;;;;;5249767;28;20028;-77
2023/08/11 05:53:17;;;;;;;7.93;7.20;;;23.10;99.90;;;;;;5256162;28;20017;-77
2023/08/11 05:55:48;;;;;;;8.65;6.40;;;23.10;99.90;;;;;;5261522;28;20069;-78
2023/08/11 05:58:19;;;;;;;7.05;6.35;;;23.10;99.90;;;;;;5234909;28;20031;-77
2023/08/11 06:00:51;;;;;;;7.13;6.55;;;23.30;99.90;;;;;;5243814;28;20090;-78
2023/08/11 06:03:22;;;;;;;8.35;7.18;;;23.30;99.90;;;;;;5248772;28;20062;-77
2023/08/11 06:05:53;;;;;;;21.05;7.28;;;23.30;99.90;;;;;;5249528;28;20527;-78
2023/08/11 06:08:24;;;;;;;6.60;5.88;;;23.30;99.90;;;;;;5256564;28;20020;-77
2023/08/11 06:10:55;;;;;;;7.57;6.97;;;23.60;99.90;;;;;;5250140;28;20043;-78
2023/08/11 06:13:27;;;;;;;6.88;6.28;;;23.60;99.90;;;;;;5249060;28;20066;-78
2023/08/11 06:15:58;;;;;;;7.60;6.53;;;23.70;99.90;;;;;;5249338;28;20044;-77
2023/08/11 06:18:29;;;;;;;7.93;5.47;;;23.70;99.90;;;;;;5257263;28;20039;-78
2023/08/11 06:21:03;;;;;;;7.68;5.47;;;23.80;99.90;;;;;;5249485;28;20033;-78
2023/08/11 06:23:34;;;;;;;5.68;5.15;;;23.80;99.90;;;;;;5243135;28;20395;-78
2023/08/11 06:26:05;;;;;;;7.95;5.65;;;23.90;99.90;;;;;;5248952;28;20085;-78
2023/08/11 06:28:36;;;;;;;5.93;5.43;;;23.90;99.90;;;;;;5249030;28;20024;-78
2023/08/11 06:31:09;;;;;;;7.45;6.60;;;23.80;99.90;;;;;;5249051;28;20032;-77
2023/08/11 06:33:40;;;;;;;7.85;5.85;;;23.90;99.90;;;;;;5249247;28;20021;-78
2023/08/11 06:36:11;;;;;;;7.32;5.43;;;23.90;99.90;;;;;;5233962;28;20102;-78
2023/08/11 06:38:42;;;;;;;6.43;5.82;;;24.00;99.90;;;;;;5257798;28;20077;-78
2023/08/11 06:41:13;;;;;;;6.07;5.63;;;24.10;99.90;;;;;;5253839;28;20104;-77
2023/08/11 06:43:46;;;;;;;6.70;6.20;;;24.00;99.90;;;;;;5248582;28;20017;-77
2023/08/11 06:46:17;;;;;;;7.05;6.45;;;24.00;99.90;;;;;;5248296;28;20052;-78
2023/08/11 06:48:48;;;;;;;6.82;5.72;;;24.10;99.90;;;;;;5248533;28;20656;-76
2023/08/11 06:51:19;;;;;;;6.13;5.57;;;24.20;99.90;;;;;;5255543;28;20036;-77
2023/08/11 06:53:50;;;;;;;7.28;5.25;;;24.30;99.90;;;;;;5252022;28;20429;-77
2023/08/11 06:56:21;;;;;;;6.25;4.63;;;24.40;99.90;;;;;;5248627;28;20043;-76
2023/08/11 06:58:52;;;;;;;5.18;4.20;;;24.50;99.90;;;;;;5248362;28;20032;-76
2023/08/11 07:01:23;;;;;;;5.07;4.60;;;24.50;99.90;;;;;;5255556;28;20036;-77
2023/08/11 07:03:54;;;;;;;5.28;4.70;;;24.60;99.90;;;;;;5256831;28;20089;-77
2023/08/11 07:06:24;;;;;;;7.93;4.90;;;24.70;99.90;;;;;;5247793;28;20071;-76
2023/08/11 07:08:55;;;;;;;5.85;4.35;;;24.70;99.90;;;;;;5247731;28;20510;-77
2023/08/11 07:11:26;;;;;;;5.78;4.45;;;24.80;99.90;;;;;;5247823;28;20388;-77
2023/08/11 07:13:57;;;;;;;8.10;4.53;;;24.80;99.90;;;;;;5247986;28;20031;-77
2023/08/11 07:16:28;;;;;;;6.07;5.47;;;24.80;99.90;;;;;;5247733;28;20683;-77
2023/08/11 07:18:59;;;;;;;7.85;5.15;;;24.90;99.90;;;;;;5248275;28;20426;-82
2023/08/11 07:21:31;;;;;;;7.20;4.20;;;25.00;99.90;;;;;;5258138;28;20044;-76
2023/08/11 07:24:02;;;;;;;5.60;5.10;;;25.00;99.90;;;;;;5247939;28;20044;-78
2023/08/11 07:26:34;;;;;;;7.43;5.40;;;25.10;99.90;;;;;;5230208;28;20032;-78
2023/08/11 07:29:05;;;;;;;5.45;4.53;;;25.00;99.90;;;;;;5234789;28;20020;-79
2023/08/11 07:31:36;;;;;;;7.95;4.75;;;25.10;99.90;;;;;;5262703;28;20025;-79
2023/08/11 07:34:07;;;;;;;8.30;4.60;;;25.10;99.90;;;;;;5248136;28;20458;-78
2023/08/11 07:36:38;;;;;;;7.35;4.72;;;25.00;99.90;;;;;;5248151;28;20111;-78
2023/08/11 07:39:09;;;;;;;6.35;4.55;;;25.00;99.90;;;;;;5261580;28;20021;-79
2023/08/11 07:41:40;;;;;;;5.43;4.93;;;25.10;99.90;;;;;;5257011;28;20073;-78
2023/08/11 07:44:11;;;;;;;7.13;4.13;;;25.10;99.90;;;;;;5237480;28;20442;-78
2023/08/11 07:46:42;;;;;;;6.15;3.88;;;25.10;99.90;;;;;;5247680;28;20049;-79
2023/08/11 07:49:13;;;;;;;5.32;3.85;;;25.10;99.90;;;;;;5246359;28;20029;-78
2023/08/11 07:51:44;;;;;;;5.60;3.60;;;25.20;99.90;;;;;;5247523;28;20025;-78
2023/08/11 07:54:16;;;;;;;7.25;3.92;;;25.10;99.90;;;;;;5229840;28;20738;-79
2023/08/11 07:56:47;;;;;;;7.80;3.92;;;25.30;99.90;;;;;;5222465;28;20515;-78
2023/08/11 07:59:18;;;;;;;8.35;4.13;;;25.40;99.90;;;;;;5229603;28;20044;-78
2023/08/11 08:01:51;;;;;;;10.05;4.25;;;25.40;99.90;;;;;;5242961;28;20036;-78
2023/08/11 08:04:23;;;;;;;6.72;4.15;;;25.50;99.90;;;;;;5247514;28;20434;-79
2023/08/11 08:06:54;;;;;;;6.60;3.90;;;25.40;99.90;;;;;;5247964;28;20028;-79
2023/08/11 08:09:25;;;;;;;6.68;3.63;;;25.40;99.90;;;;;;5247572;28;20040;-79
2023/08/11 08:11:56;;;;;;;8.05;4.38;;;25.50;99.90;;;;;;5247710;28;20023;-79
2023/08/11 08:14:27;;;;;;;5.72;3.17;;;25.60;99.90;;;;;;5257693;28;20040;-81
2023/08/11 08:17:01;;;;;;;3.78;3.35;;;25.60;99.90;;;;;;5247786;28;20029;-80
2023/08/11 08:19:32;;;;;;;11.80;3.95;;;25.50;99.90;;;;;;5247563;28;20028;-81
2023/08/11 08:22:04;;;;;;;9.23;4.50;;;25.70;99.90;;;;;;5247944;28;20035;-80
2023/08/11 08:24:34;;;;;;;9.23;4.30;;;25.70;99.90;;;;;;5247702;28;20017;-79
2023/08/11 08:27:05;;;;;;;5.57;4.30;;;25.80;99.90;;;;;;5247590;28;20047;-80
2023/08/11 08:29:36;;;;;;;12.68;5.10;;;25.80;99.90;;;;;;5247600;28;20117;-78
2023/08/11 08:32:08;;;;;;;7.40;4.55;;;25.70;99.90;;;;;;5247529;28;20090;-81
2023/08/11 08:34:39;;;;;;;12.43;4.82;;;25.80;99.90;;;;;;5247506;28;20349;-79
2023/08/11 08:37:10;;;;;;;6.00;4.60;;;25.80;99.90;;;;;;5246075;28;20020;-78
2023/08/11 08:39:43;;;;;;;6.10;5.05;;;25.90;99.90;;;;;;5242398;28;20116;-80
2023/08/11 08:42:15;;;;;;;5.68;4.82;;;26.00;99.90;;;;;;5248517;28;20115;-80
2023/08/11 08:44:49;;;;;;;5.35;4.85;;;26.10;99.90;;;;;;5229326;28;20131;-81
2023/08/11 08:47:24;;;;;;;7.10;4.97;;;26.10;99.90;;;;;;5245232;28;20123;-80
2023/08/11 08:49:57;;;;;;;6.53;4.72;;;26.30;99.90;;;;;;5242508;28;20033;-79
2023/08/11 08:52:29;;;;;;;6.50;5.03;;;26.00;99.90;;;;;;5248410;28;20020;-81
2023/08/11 08:55:01;;;;;;;5.32;4.70;;;26.20;99.90;;;;;;5250033;28;20044;-80
2023/08/11 08:57:31;;;;;;;5.05;4.35;;;26.40;99.90;;;;;;5234147;28;20056;-81
2023/08/11 09:00:03;;;;;;;8.70;4.95;;;26.40;99.90;;;;;;5250963;28;20052;-81
2023/08/11 09:02:34;;;;;;;4.93;4.43;;;26.50;99.90;;;;;;5248970;28;20550;-80
2023/08/11 09:05:06;;;;;;;6.95;5.28;;;26.40;99.90;;;;;;5250883;28;20027;-80
2023/08/11 09:07:37;;;;;;;8.43;5.30;;;26.40;99.90;;;;;;5250771;28;20598;-80
2023/08/11 09:10:08;;;;;;;7.03;5.30;;;26.30;99.90;;;;;;5250426;28;20084;-79
2023/08/11 09:12:39;;;;;;;8.18;5.03;;;26.40;99.90;;;;;;5247154;28;20067;-80
2023/08/11 09:15:11;;;;;;;9.43;5.82;;;26.50;99.90;;;;;;5230131;28;20104;-80
2023/08/11 09:17:42;;;;;;;7.53;5.70;;;26.60;99.90;;;;;;5243486;28;20112;-81
2023/08/11 09:20:17;;;;;;;6.10;5.47;;;26.60;99.90;;;;;;5250588;28;20103;-79
2023/08/11 09:22:49;;;;;;;6.85;5.40;;;26.70;99.90;;;;;;5251170;28;20476;-80
2023/08/11 09:25:20;;;;;;;7.32;5.47;;;26.80;99.90;;;;;;5233964;28;20039;-79
2023/08/11 09:27:51;;;;;;;10.05;5.55;;;26.70;99.90;;;;;;5249312;28;20391;-79
2023/08/11 09:30:23;;;;;;;7.43;4.03;;;26.50;99.90;;;;;;5236703;28;20376;-79
2023/08/11 09:32:54;;;;;;;9.20;4.65;;;26.80;99.90;;;;;;5249905;28;20105;-79
2023/08/11 09:35:25;;;;;;;5.50;4.82;;;27.00;99.90;;;;;;5249861;28;20078;-79
2023/08/11 09:37:56;;;;;;;8.57;4.95;;;26.90;99.90;;;;;;5234979;28;20024;-79
2023/08/11 09:40:27;;;;;;;6.80;4.72;;;27.00;99.90;;;;;;5255835;28;20350;-78
2023/08/11 09:42:59;;;;;;;8.65;4.80;;;27.00;99.90;;;;;;5244189;28;20040;-79
2023/08/11 09:45:32;;;;;;;7.07;4.82;;;27.00;99.90;;;;;;5249478;28;20115;-79
2023/08/11 09:48:04;;;;;;;7.13;4.40;;;27.10;99.90;;;;;;5248486;28;20032;-79
2023/08/11 09:50:37;;;;;;;6.38;4.40;;;27.20;99.90;;;;;;5236443;28;20025;-80
2023/08/11 09:53:11;;;;;;;7.45;4.82;;;27.20;99.90;;;;;;5245630;28;20111;-79
2023/08/11 09:55:43;;;;;;;7.32;4.05;;;27.20;99.90;;;;;;5255651;28;20063;-80
2023/08/11 09:58:15;;;;;;;8.85;4.47;;;27.30;99.90;;;;;;5249578;28;20464;-80
2023/08/11 10:00:49;;;;;;;6.55;4.00;;;27.30;99.90;;;;;;5249780;28;20025;-80
2023/08/11 10:03:28;;;;;;;7.88;4.25;;;27.20;99.90;;;;;;5249658;28;20033;-79
2023/08/11 10:06:02;;;;;;;4.75;3.75;;;27.30;99.90;;;;;;5211011;28;20040;-80
2023/08/11 10:08:34;;;;;;;7.60;4.10;;;27.30;99.90;;;;;;5218764;28;20296;-80
2023/08/11 10:11:05;;;;;;;4.40;3.75;;;27.40;99.90;;;;;;5239658;28;20028;-80
2023/08/11 10:13:37;;;;;;;5.93;3.85;;;27.50;99.90;;;;;;5230973;28;20110;-79
2023/08/11 10:16:08;;;;;;;5.93;3.60;;;27.50;99.90;;;;;;5249182;28;20037;-80
2023/08/11 10:18:42;;;;;;;5.68;4.47;;;27.40;99.90;;;;;;5225660;28;20032;-79
2023/08/11 10:21:13;;;;;;;5.28;3.85;;;27.60;99.90;;;;;;5269300;28;20042;-79
2023/08/11 10:23:45;;;;;;;5.60;4.45;;;27.60;99.90;;;;;;5212241;28;20029;-80
2023/08/11 10:26:16;;;;;;;5.45;4.15;;;27.60;99.90;;;;;;5243503;28;20028;-79
2023/08/11 10:28:47;;;;;;;8.40;4.50;;;27.80;99.90;;;;;;5239037;28;20494;-80
2023/08/11 10:31:23;;;;;;;7.55;4.30;;;27.90;99.90;;;;;;5228208;28;20747;-80
2023/08/11 10:33:54;;;;;;;5.30;3.80;;;27.90;99.90;;;;;;5248503;28;20078;-77
2023/08/11 10:36:27;;;;;;;6.18;3.63;;;27.80;99.90;;;;;;5231461;28;20024;-77
2023/08/11 10:39:04;;;;;;;5.50;3.97;;;27.80;99.90;;;;;;5236510;28;20025;-77
2023/08/11 10:41:34;;;;;;;3.88;3.42;;;27.70;99.90;;;;;;5248459;28;20107;-77
2023/08/11 10:44:06;;;;;;;5.65;3.65;;;27.70;99.90;;;;;;5248325;28;20103;-76
2023/08/11 10:46:38;;;;;;;6.35;4.32;;;27.90;99.90;;;;;;5248774;28;20090;-76
2023/08/11 10:49:09;;;;;;;3.78;3.35;;;27.70;99.90;;;;;;5230742;28;20040;-78
2023/08/11 10:51:41;;;;;;;5.60;3.80;;;27.80;99.90;;;;;;5248657;28;20024;-78
2023/08/11 10:54:22;;;;;;;7.88;3.85;;;27.80;99.90;;;;;;5233612;28;20148;-79
2023/08/11 10:56:54;;;;;;;5.25;3.88;;;27.80;99.90;;;;;;5248924;28;20035;-77
2023/08/11 10:59:32;;;;;;;5.18;3.70;;;27.90;99.90;;;;;;5248248;28;20020;-80
2023/08/11 11:02:04;;;;;;;4.70;3.40;;;27.70;99.90;;;;;;5248385;28;20048;-79
2023/08/11 11:04:36;;;;;;;6.65;3.50;;;27.60;99.90;;;;;;5247813;28;20036;-81
2023/08/11 11:07:07;;;;;;;7.07;3.70;;;27.80;99.90;;;;;;5230337;28;20368;-77
2023/08/11 11:09:38;;;;;;;5.32;3.42;;;27.70;99.90;;;;;;5250787;28;20112;-79
2023/08/11 11:12:09;;;;;;;6.82;3.70;;;27.70;99.90;;;;;;5253780;28;20029;-79
2023/08/11 11:14:40;;;;;;;6.32;3.72;;;27.90;99.90;;;;;;5248074;28;20037;-81
2023/08/11 11:17:11;;;;;;;8.02;2.90;;;27.60;99.90;;;;;;5247763;28;20068;-79
2023/08/11 11:19:42;;;;;;;4.05;3.30;;;27.70;99.90;;;;;;5256355;28;20027;-79
2023/08/11 11:22:13;;;;;;;4.13;3.30;;;27.80;99.90;;;;;;5247926;28;20032;-80
2023/08/11 11:24:44;;;;;;;5.03;3.60;;;27.90;99.90;;;;;;5247853;28;20112;-82
2023/08/11 11:27:15;;;;;;;68.80;8.38;;;27.90;99.90;;;;;;5251088;28;20182;-78
2023/08/11 11:29:46;;;;;;;24.75;4.72;;;27.90;99.90;;;;;;5257489;28;20024;-80
2023/08/11 11:32:18;;;;;;;50.90;7.00;;;28.00;99.90;;;;;;5246533;28;20063;-78
2023/08/11 11:34:50;;;;;;;4.78;3.42;;;27.90;99.90;;;;;;5248709;28;20045;-80
2023/08/11 11:37:21;;;;;;;5.38;3.17;;;27.90;99.90;;;;;;5268974;28;20028;-80
2023/08/11 11:39:54;;;;;;;5.35;3.38;;;27.90;99.90;;;;;;5249954;28;20368;-79
2023/08/11 11:42:29;;;;;;;5.25;3.75;;;27.90;99.90;;;;;;5251426;28;20024;-79
2023/08/11 11:45:01;;;;;;;6.28;3.47;;;28.00;99.90;;;;;;5234959;28;20048;-80
2023/08/11 11:47:36;;;;;;;4.88;3.90;;;28.20;99.90;;;;;;5225691;28;20025;-78
2023/08/11 11:50:13;;;;;;;7.72;3.67;;;28.10;99.90;;;;;;5239083;28;20545;-79
2023/08/11 11:52:47;;;;;;;5.82;4.03;;;28.10;99.90;;;;;;5248383;28;20448;-79
2023/08/11 11:55:18;;;;;;;6.65;4.50;;;28.10;99.90;;;;;;5244389;28;20036;-82
2023/08/11 11:57:49;;;;;;;6.63;4.15;;;28.20;99.90;;;;;;5225055;28;20380;-84
2023/08/11 12:00:22;;;;;;;6.22;4.95;;;28.20;99.90;;;;;;5241793;28;20031;-78
2023/08/11 12:02:54;;;;;;;6.82;5.05;;;28.00;99.90;;;;;;5244398;28;20013;-74
2023/08/11 12:05:26;;;;;;;6.05;5.50;;;28.10;99.90;;;;;;5226392;28;20040;-73
2023/08/11 12:07:57;;;;;;;6.05;5.55;;;28.30;99.90;;;;;;5234547;28;20025;-85
2023/08/11 12:10:33;;;;;;;6.53;5.97;;;28.10;99.90;;;;;;5220247;28;20036;-78
2023/08/11 12:13:04;;;;;;;7.07;5.07;;;28.20;99.90;;;;;;5244143;28;20404;-73
2023/08/11 12:15:35;;;;;;;7.97;5.22;;;28.20;99.90;;;;;;5245132;28;20044;-81
2023/08/11 12:18:06;;;;;;;7.47;6.18;;;28.00;99.90;;;;;;5240235;28;20025;-79
2023/08/11 12:20:37;;;;;;;5.75;5.25;;;28.10;99.90;;;;;;5246666;28;20032;-75
2023/08/11 12:23:08;;;;;;;8.88;5.60;;;28.00;99.90;;;;;;5227829;28;20029;-77
2023/08/11 12:25:39;;;;;;;6.30;5.80;;;28.10;99.90;;;;;;5231955;28;20403;-76
2023/08/11 12:28:10;;;;;;;6.80;5.68;;;28.00;99.90;;;;;;5228631;28;20021;-76
2023/08/11 12:30:41;;;;;;;6.70;6.03;;;28.00;99.90;;;;;;5248377;28;20476;-77
2023/08/11 12:33:12;;;;;;;6.25;5.75;;;28.10;99.90;;;;;;5245286;28;20055;-78
2023/08/11 12:35:43;;;;;;;5.25;4.85;;;28.40;99.90;;;;;;5208840;28;20128;-77
2023/08/11 12:38:19;;;;;;;5.30;4.80;;;28.30;99.90;;;;;;5213553;28;20549;-77
2023/08/11 12:40:50;;;;;;;5.85;4.25;;;28.30;99.90;;;;;;5230542;28;20057;-77
2023/08/11 12:43:21;;;;;;;5.00;4.55;;;28.30;99.90;;;;;;5230531;28;20497;-77
2023/08/11 12:45:52;;;;;;;4.63;4.18;;;28.20;99.90;;;;;;5253438;28;20052;-79
2023/08/11 12:48:23;;;;;;;8.80;4.88;;;28.30;99.90;;;;;;5272249;28;20448;-78
2023/08/11 12:50:54;;;;;;;5.13;4.63;;;28.30;99.90;;;;;;5272074;28;20024;-78
2023/08/11 12:53:25;;;;;;;6.38;5.18;;;28.30;99.90;;;;;;5259688;28;20399;-80
2023/08/11 12:55:56;;;;;;;6.43;5.28;;;28.30;99.90;;;;;;5251034;28;20036;-79
2023/08/11 12:58:27;;;;;;;6.28;4.88;;;28.30;99.90;;;;;;5251113;28;20035;-79
2023/08/11 13:00:58;;;;;;;5.18;4.50;;;28.20;99.90;;;;;;5251211;28;20032;-78
2023/08/11 13:03:29;;;;;;;5.03;4.47;;;28.10;99.90;;;;;;5250678;28;20103;-78
2023/08/11 13:06:00;;;;;;;6.05;5.47;;;28.30;99.90;;;;;;5245309;28;20108;-78
2023/08/11 13:08:30;;;;;;;5.20;4.70;;;28.20;99.90;;;;;;5263800;28;20067;-79